createdAt,value
2017-12-31T00:00:49.761Z,94.10
2017-12-31T00:03:19.114Z,93.70
2017-12-31T00:05:47.494Z,93.70
2017-12-31T00:08:15.852Z,93.70
2017-12-31T00:10:44.206Z,94.00
2017-12-31T00:13:13.323Z,93.70
2017-12-31T00:15:41.653Z,93.90
2017-12-31T00:18:09.987Z,93.60
2017-12-31T00:20:38.409Z,94.20
2017-12-31T00:23:06.752Z,93.60
2017-12-31T00:25:36.796Z,93.40
2017-12-31T00:28:05.152Z,93.50
2017-12-31T00:30:33.544Z,93.60
2017-12-31T00:33:01.911Z,93.50
2017-12-31T00:35:30.253Z,93.40
2017-12-31T00:37:58.583Z,93.70
2017-12-31T00:40:26.954Z,93.40
2017-12-31T00:42:55.304Z,93.50
2017-12-31T00:45:23.711Z,93.10
2017-12-31T00:47:52.060Z,93.20
2017-12-31T00:50:20.636Z,93.20
2017-12-31T00:52:49.841Z,93.30
2017-12-31T00:55:18.440Z,93.30
2017-12-31T00:57:46.824Z,93.10
2017-12-31T01:00:15.219Z,93.00
2017-12-31T01:02:43.657Z,93.10
2017-12-31T01:05:12.135Z,93.00
2017-12-31T01:07:40.467Z,93.00
2017-12-31T01:10:09.580Z,92.90
2017-12-31T01:12:37.933Z,92.90
2017-12-31T01:15:07.131Z,92.80
2017-12-31T01:17:35.640Z,92.80
2017-12-31T01:20:04.065Z,92.80
2017-12-31T01:22:32.422Z,92.80
2017-12-31T01:25:00.812Z,92.70
2017-12-31T01:27:29.138Z,92.60
2017-12-31T01:29:57.589Z,92.70
2017-12-31T01:32:25.933Z,92.60
2017-12-31T01:34:54.288Z,92.50
2017-12-31T01:37:22.620Z,92.50
2017-12-31T01:39:51.742Z,92.50
2017-12-31T01:42:20.847Z,92.80
2017-12-31T01:44:49.800Z,92.40
2017-12-31T01:47:18.561Z,92.40
2017-12-31T01:49:46.946Z,92.40
2017-12-31T01:52:15.284Z,92.30
2017-12-31T01:54:43.696Z,92.40
2017-12-31T01:57:12.046Z,92.40
2017-12-31T01:59:40.425Z,92.40
2017-12-31T02:02:08.448Z,92.20
2017-12-31T02:04:36.793Z,92.20
2017-12-31T02:07:05.115Z,92.20
2017-12-31T02:09:34.348Z,92.00
2017-12-31T02:12:02.687Z,92.00
2017-12-31T02:14:31.869Z,91.80
2017-12-31T02:17:00.209Z,91.80
2017-12-31T02:19:28.605Z,91.70
2017-12-31T02:21:56.972Z,91.70
2017-12-31T02:24:25.355Z,91.50
2017-12-31T02:26:53.693Z,91.50
2017-12-31T02:29:22.031Z,91.60
2017-12-31T02:31:51.158Z,91.40
2017-12-31T02:34:19.494Z,91.50
2017-12-31T02:36:47.839Z,91.60
2017-12-31T02:39:16.234Z,91.40
2017-12-31T02:41:44.563Z,91.40
2017-12-31T02:44:13.015Z,91.50
2017-12-31T02:46:41.352Z,91.30
2017-12-31T02:49:09.764Z,91.40
2017-12-31T02:51:38.102Z,91.30
2017-12-31T02:54:06.517Z,91.30
2017-12-31T02:56:34.856Z,91.30
2017-12-31T02:59:03.204Z,91.20
2017-12-31T03:01:32.310Z,91.10
2017-12-31T03:04:00.748Z,91.10
2017-12-31T03:06:29.095Z,91.10
2017-12-31T03:08:57.522Z,90.90
2017-12-31T03:11:26.616Z,90.70
2017-12-31T03:13:55.847Z,90.50
2017-12-31T03:16:24.191Z,90.50
2017-12-31T03:18:53.361Z,90.60
2017-12-31T03:21:21.696Z,90.70
2017-12-31T03:23:50.040Z,90.70
2017-12-31T03:26:19.189Z,90.70
2017-12-31T03:28:47.576Z,90.70
2017-12-31T03:31:16.679Z,90.40
2017-12-31T03:33:45.045Z,90.40
2017-12-31T03:36:13.367Z,90.50
2017-12-31T03:38:42.488Z,90.50
2017-12-31T03:41:10.807Z,90.50
2017-12-31T03:43:39.258Z,90.40
2017-12-31T03:46:07.613Z,90.50
2017-12-31T03:48:35.942Z,90.40
2017-12-31T03:51:04.283Z,90.40
2017-12-31T03:53:32.708Z,90.40
2017-12-31T03:56:01.048Z,90.30
2017-12-31T03:58:29.409Z,90.40
2017-12-31T04:00:57.740Z,90.70
2017-12-31T04:03:26.086Z,90.60
2017-12-31T04:05:54.441Z,91.00
2017-12-31T04:08:22.457Z,90.70
2017-12-31T04:10:50.796Z,90.70
2017-12-31T04:13:19.512Z,90.90
2017-12-31T04:15:47.844Z,91.10
2017-12-31T04:18:16.338Z,91.20
2017-12-31T04:20:44.667Z,91.30
2017-12-31T04:23:13.767Z,91.40
2017-12-31T04:25:42.876Z,91.40
2017-12-31T04:28:11.236Z,91.30
2017-12-31T04:30:40.343Z,91.50
2017-12-31T04:33:09.500Z,91.50
2017-12-31T04:35:37.839Z,91.50
2017-12-31T04:38:06.245Z,91.50
2017-12-31T04:40:34.570Z,91.50
2017-12-31T04:43:03.025Z,91.50
2017-12-31T04:45:31.352Z,91.60
2017-12-31T04:47:59.708Z,91.50
2017-12-31T04:50:28.047Z,91.50
2017-12-31T04:52:56.407Z,91.50
2017-12-31T04:55:24.749Z,91.60
2017-12-31T04:57:53.111Z,91.60
2017-12-31T05:00:21.447Z,91.70
2017-12-31T05:02:50.857Z,91.60
2017-12-31T05:05:19.243Z,91.50
2017-12-31T05:07:48.783Z,91.70
2017-12-31T05:10:17.172Z,91.40
2017-12-31T05:12:45.595Z,91.30
2017-12-31T05:15:13.921Z,91.30
2017-12-31T05:17:42.360Z,91.30
2017-12-31T05:20:10.704Z,91.20
2017-12-31T05:22:39.153Z,91.30
2017-12-31T05:25:07.505Z,91.40
2017-12-31T05:27:36.621Z,91.40
2017-12-31T05:30:04.980Z,91.40
2017-12-31T05:32:34.185Z,91.40
2017-12-31T05:35:02.546Z,91.30
2017-12-31T05:37:31.643Z,91.30
2017-12-31T05:40:00.751Z,91.20
2017-12-31T05:42:29.108Z,91.20
2017-12-31T05:44:58.225Z,91.30
2017-12-31T05:47:26.669Z,91.30
2017-12-31T05:49:55.034Z,91.30
2017-12-31T05:52:24.327Z,91.30
2017-12-31T05:54:52.674Z,91.40
2017-12-31T05:57:22.091Z,91.40
2017-12-31T05:59:51.285Z,91.30
2017-12-31T06:02:20.707Z,91.20
2017-12-31T06:04:50.823Z,91.20
2017-12-31T06:07:19.389Z,91.50
2017-12-31T06:09:47.733Z,91.30
2017-12-31T06:12:17.109Z,91.20
2017-12-31T06:14:45.440Z,91.30
2017-12-31T06:17:13.774Z,91.30
2017-12-31T06:19:42.920Z,91.20
2017-12-31T06:22:11.317Z,91.20
2017-12-31T06:24:39.660Z,91.20
2017-12-31T06:27:08.062Z,91.20
2017-12-31T06:29:36.395Z,91.20
2017-12-31T06:32:05.734Z,91.10
2017-12-31T06:34:34.099Z,91.10
2017-12-31T06:37:02.424Z,91.20
2017-12-31T06:39:31.515Z,91.10
2017-12-31T06:42:00.720Z,91.20
2017-12-31T06:44:29.819Z,91.00
2017-12-31T06:46:59.000Z,90.90
2017-12-31T06:49:27.339Z,90.90
2017-12-31T06:51:56.515Z,91.00
2017-12-31T06:54:24.865Z,90.90
2017-12-31T06:56:54.022Z,91.00
2017-12-31T06:59:24.187Z,91.00
2017-12-31T07:01:52.532Z,90.80
2017-12-31T07:04:20.878Z,90.80
2017-12-31T07:06:50.251Z,90.80
2017-12-31T07:09:18.674Z,90.80
2017-12-31T07:11:47.047Z,90.70
2017-12-31T07:14:15.385Z,90.70
2017-12-31T07:16:43.835Z,90.60
2017-12-31T07:19:12.939Z,90.80
2017-12-31T07:21:42.025Z,90.70
2017-12-31T07:24:11.154Z,90.70
2017-12-31T07:26:39.577Z,90.70
2017-12-31T07:29:07.938Z,90.50
2017-12-31T07:31:36.272Z,90.30
2017-12-31T07:34:05.356Z,90.30
2017-12-31T07:36:34.528Z,90.00
2017-12-31T07:39:02.657Z,90.50
2017-12-31T07:41:31.044Z,90.20
2017-12-31T07:43:59.382Z,90.00
2017-12-31T07:46:28.570Z,90.20
2017-12-31T07:48:57.685Z,90.10
2017-12-31T07:51:26.114Z,90.10
2017-12-31T07:53:55.231Z,90.00
2017-12-31T07:56:24.349Z,90.20
2017-12-31T07:58:52.678Z,89.90
2017-12-31T08:01:21.892Z,90.10
2017-12-31T08:03:50.223Z,90.00
2017-12-31T08:06:19.438Z,89.90
2017-12-31T08:08:47.771Z,89.50
2017-12-31T08:11:16.920Z,89.40
2017-12-31T08:13:45.260Z,89.40
2017-12-31T08:16:13.716Z,89.70
2017-12-31T08:18:42.865Z,88.90
2017-12-31T08:21:11.383Z,88.90
2017-12-31T08:23:40.483Z,88.70
2017-12-31T08:26:09.603Z,88.40
2017-12-31T08:28:37.954Z,88.30
2017-12-31T08:31:07.071Z,88.10
2017-12-31T08:33:35.401Z,88.10
2017-12-31T08:36:03.777Z,86.10
2017-12-31T08:38:32.127Z,86.90
2017-12-31T08:41:00.463Z,86.60
2017-12-31T08:43:29.558Z,86.50
2017-12-31T08:45:58.670Z,85.60
2017-12-31T08:48:27.009Z,85.70
2017-12-31T08:50:55.375Z,86.10
2017-12-31T08:53:23.717Z,86.10
2017-12-31T08:55:52.048Z,86.10
2017-12-31T08:58:21.930Z,85.90
2017-12-31T09:00:50.270Z,85.30
2017-12-31T09:03:18.758Z,83.80
2017-12-31T09:05:47.098Z,84.40
2017-12-31T09:08:16.195Z,85.50
2017-12-31T09:10:45.327Z,85.10
2017-12-31T09:13:13.332Z,85.20
2017-12-31T09:15:41.673Z,85.10
2017-12-31T09:18:10.030Z,84.40
2017-12-31T09:20:39.130Z,83.50
2017-12-31T09:23:07.444Z,83.50
2017-12-31T09:25:36.577Z,86.10
2017-12-31T09:28:05.681Z,85.40
2017-12-31T09:30:34.775Z,85.50
2017-12-31T09:33:03.889Z,85.60
2017-12-31T09:35:32.214Z,85.60
2017-12-31T09:38:00.559Z,84.40
2017-12-31T09:40:28.891Z,85.00
2017-12-31T09:42:58.019Z,83.70
2017-12-31T09:45:26.358Z,83.70
2017-12-31T09:47:54.698Z,82.60
2017-12-31T09:50:23.053Z,82.70
2017-12-31T09:52:51.780Z,83.10
2017-12-31T09:55:20.617Z,81.90
2017-12-31T09:57:49.533Z,82.00
2017-12-31T10:00:17.864Z,82.20
2017-12-31T10:02:46.998Z,82.60
2017-12-31T10:05:15.329Z,82.60
2017-12-31T10:07:44.431Z,81.80
2017-12-31T10:10:13.559Z,82.20
2017-12-31T10:12:41.937Z,82.00
2017-12-31T10:15:10.274Z,82.20
2017-12-31T10:17:39.395Z,82.30
2017-12-31T10:20:07.731Z,82.30
2017-12-31T10:22:37.062Z,83.20
2017-12-31T10:25:05.391Z,81.10
2017-12-31T10:27:33.764Z,82.30
2017-12-31T10:30:02.114Z,81.90
2017-12-31T10:32:30.439Z,80.30
2017-12-31T10:34:58.792Z,79.00
2017-12-31T10:37:27.133Z,77.30
2017-12-31T10:39:55.491Z,78.50
2017-12-31T10:42:25.576Z,79.00
2017-12-31T10:44:53.920Z,79.00
2017-12-31T10:47:22.264Z,80.40
2017-12-31T10:49:52.425Z,80.90
2017-12-31T10:52:21.775Z,81.00
2017-12-31T10:54:50.924Z,77.30
2017-12-31T10:57:19.952Z,77.30
2017-12-31T10:59:48.302Z,78.30
2017-12-31T11:02:17.615Z,77.70
2017-12-31T12:26:44.196Z,78.30
2017-12-31T12:29:12.546Z,79.20
2017-12-31T12:31:40.923Z,80.10
2017-12-31T12:34:09.092Z,80.20
2017-12-31T12:36:37.452Z,77.20
2017-12-31T12:39:05.461Z,77.80
2017-12-31T12:41:34.593Z,79.30
2017-12-31T12:44:02.932Z,79.20
2017-12-31T12:46:32.042Z,79.40
2017-12-31T12:49:00.390Z,79.50
2017-12-31T12:51:29.499Z,79.40
2017-12-31T12:53:58.637Z,77.20
2017-12-31T12:56:26.982Z,77.20
2017-12-31T12:58:55.338Z,78.60
2017-12-31T13:01:24.520Z,79.20
2017-12-31T13:03:52.860Z,79.20
2017-12-31T13:06:21.729Z,78.60
2017-12-31T13:08:50.911Z,79.30
2017-12-31T13:11:20.016Z,79.50
2017-12-31T13:13:48.375Z,79.50
2017-12-31T13:16:17.468Z,77.60
2017-12-31T13:18:46.612Z,78.60
2017-12-31T13:21:15.890Z,78.80
2017-12-31T13:23:44.299Z,78.80
2017-12-31T13:26:12.651Z,77.40
2017-12-31T13:28:40.995Z,79.40
2017-12-31T13:31:10.111Z,78.20
2017-12-31T13:33:38.478Z,78.10
2017-12-31T13:36:06.808Z,77.60
2017-12-31T13:38:35.224Z,79.40
2017-12-31T13:41:04.344Z,78.60
2017-12-31T13:43:32.716Z,78.60
2017-12-31T13:46:01.258Z,79.10
2017-12-31T13:48:29.624Z,79.70
2017-12-31T13:50:57.963Z,80.60
2017-12-31T13:53:26.340Z,78.80
2017-12-31T13:55:54.666Z,79.40
2017-12-31T13:58:23.900Z,80.90
2017-12-31T14:00:52.241Z,80.80
2017-12-31T14:03:21.442Z,80.70
2017-12-31T14:05:51.158Z,79.90
2017-12-31T14:08:20.526Z,80.80
2017-12-31T14:10:48.954Z,80.70
2017-12-31T14:13:17.292Z,79.80
2017-12-31T14:15:45.644Z,80.20
2017-12-31T14:18:14.049Z,81.10
2017-12-31T14:20:42.397Z,80.50
2017-12-31T14:23:10.870Z,80.50
2017-12-31T14:25:39.244Z,79.40
2017-12-31T14:28:07.643Z,79.20
2017-12-31T14:30:35.796Z,80.00
2017-12-31T14:33:04.240Z,78.90
2017-12-31T14:35:32.582Z,78.80
2017-12-31T14:38:00.957Z,78.10
2017-12-31T14:40:29.317Z,77.90
2017-12-31T14:42:57.787Z,77.40
2017-12-31T14:45:26.131Z,75.80
2017-12-31T14:47:54.583Z,77.80
2017-12-31T14:50:23.697Z,79.80
2017-12-31T14:52:52.895Z,79.70
2017-12-31T14:55:21.247Z,79.70
2017-12-31T14:57:50.249Z,80.10
2017-12-31T15:00:20.301Z,79.60
2017-12-31T15:02:49.005Z,79.50
2017-12-31T15:05:17.364Z,79.00
2017-12-31T15:07:45.772Z,79.20
2017-12-31T15:10:14.124Z,77.70
2017-12-31T15:12:43.345Z,79.30
2017-12-31T15:15:11.701Z,75.00
2017-12-31T15:17:40.127Z,77.50
2017-12-31T15:20:09.259Z,77.90
2017-12-31T15:22:37.777Z,77.70
2017-12-31T15:25:06.117Z,78.70
2017-12-31T15:27:34.438Z,78.80
2017-12-31T15:30:02.793Z,78.10
2017-12-31T15:32:31.181Z,78.60
2017-12-31T15:34:59.547Z,78.90
2017-12-31T15:37:27.936Z,78.20
2017-12-31T15:39:56.287Z,78.30
2017-12-31T15:42:25.724Z,78.20
2017-12-31T15:44:54.064Z,77.80
2017-12-31T15:47:22.218Z,78.70
2017-12-31T15:49:50.566Z,76.30
2017-12-31T15:52:21.424Z,78.60
2017-12-31T15:54:50.401Z,77.90
2017-12-31T15:57:20.398Z,77.60
2017-12-31T15:59:48.992Z,77.60
2017-12-31T16:02:19.898Z,78.30
2017-12-31T16:04:48.248Z,78.30
2017-12-31T16:07:16.645Z,76.70
2017-12-31T16:09:45.009Z,77.60
2017-12-31T16:12:14.370Z,78.90
2017-12-31T16:14:43.492Z,79.60
2017-12-31T16:17:11.913Z,79.70
2017-12-31T16:19:40.264Z,80.10
2017-12-31T16:22:09.486Z,79.60
2017-12-31T16:24:37.841Z,79.70
2017-12-31T16:27:06.222Z,79.70
2017-12-31T16:29:34.561Z,74.50
2017-12-31T16:32:03.217Z,77.70
2017-12-31T16:34:32.327Z,79.30
2017-12-31T16:37:00.659Z,79.30
2017-12-31T16:39:29.014Z,79.10
2017-12-31T16:41:57.458Z,79.00
2017-12-31T16:44:26.575Z,79.60
2017-12-31T16:46:54.898Z,79.50
2017-12-31T16:49:23.231Z,78.20
2017-12-31T16:51:51.894Z,79.40
2017-12-31T16:54:21.333Z,78.70
2017-12-31T16:56:49.732Z,78.40
2017-12-31T16:59:18.072Z,78.70
2017-12-31T17:01:46.481Z,78.30
2017-12-31T17:04:14.647Z,78.30
2017-12-31T17:06:43.035Z,78.30
2017-12-31T17:09:11.373Z,78.30
2017-12-31T17:11:39.788Z,78.60
2017-12-31T17:14:08.128Z,78.90
2017-12-31T17:16:36.527Z,78.70
2017-12-31T17:19:04.855Z,79.10
2017-12-31T17:21:33.229Z,78.40
2017-12-31T17:24:02.328Z,78.40
2017-12-31T17:26:30.744Z,78.40
2017-12-31T17:28:59.108Z,79.20
2017-12-31T17:31:27.451Z,79.20
2017-12-31T17:33:56.577Z,78.60
2017-12-31T17:36:24.979Z,78.70
2017-12-31T17:38:54.091Z,78.50
2017-12-31T17:41:22.463Z,78.60
2017-12-31T17:43:51.606Z,78.60
2017-12-31T17:46:20.077Z,78.90
2017-12-31T17:48:49.727Z,78.90
2017-12-31T17:51:18.083Z,78.90
2017-12-31T17:53:46.458Z,79.30
2017-12-31T17:56:14.865Z,79.10
2017-12-31T17:58:43.205Z,79.50
2017-12-31T18:01:11.670Z,79.10
2017-12-31T18:03:40.756Z,78.40
2017-12-31T18:06:09.951Z,78.80
2017-12-31T18:08:39.073Z,79.00
2017-12-31T18:11:07.527Z,78.80
2017-12-31T18:13:36.626Z,78.40
2017-12-31T18:16:04.963Z,78.40
2017-12-31T18:18:33.333Z,78.40
2017-12-31T18:21:01.708Z,78.80
2017-12-31T18:23:30.048Z,78.70
2017-12-31T18:25:58.465Z,78.40
2017-12-31T18:28:26.811Z,78.30
2017-12-31T18:30:55.205Z,78.70
2017-12-31T18:33:23.576Z,77.90
2017-12-31T18:35:52.005Z,78.00
2017-12-31T18:38:21.981Z,77.60
2017-12-31T18:40:50.557Z,77.60
2017-12-31T18:43:19.297Z,78.30
2017-12-31T18:45:48.459Z,79.10
2017-12-31T18:48:16.798Z,79.00
2017-12-31T18:50:45.181Z,78.70
2017-12-31T18:53:13.520Z,78.20
2017-12-31T18:55:42.709Z,77.50
2017-12-31T18:58:11.827Z,77.70
2017-12-31T19:00:40.248Z,77.60
2017-12-31T19:03:08.408Z,77.90
2017-12-31T19:05:36.835Z,77.90
2017-12-31T19:08:05.921Z,77.50
2017-12-31T19:10:35.088Z,77.80
2017-12-31T19:13:03.430Z,77.80
2017-12-31T19:15:31.812Z,77.80
2017-12-31T19:18:00.164Z,78.20
2017-12-31T19:20:28.600Z,77.40
2017-12-31T19:22:56.941Z,77.70
2017-12-31T19:25:25.278Z,77.40
2017-12-31T19:27:54.402Z,77.00
2017-12-31T19:30:22.824Z,77.00
2017-12-31T19:32:51.863Z,77.00
2017-12-31T19:35:20.237Z,77.30
2017-12-31T19:37:50.004Z,77.20
2017-12-31T19:40:18.368Z,77.10
2017-12-31T19:42:46.712Z,76.90
2017-12-31T19:45:15.041Z,77.00
2017-12-31T19:47:43.420Z,76.90
2017-12-31T19:50:11.784Z,77.00
2017-12-31T19:52:40.132Z,77.40
2017-12-31T19:55:08.476Z,77.30
2017-12-31T19:57:37.566Z,76.90
2017-12-31T20:00:06.699Z,76.50
2017-12-31T20:02:35.028Z,76.50
2017-12-31T20:05:04.121Z,76.80
2017-12-31T20:07:33.253Z,76.90
2017-12-31T20:10:01.588Z,76.90
2017-12-31T20:12:29.949Z,77.00
2017-12-31T20:14:58.114Z,76.40
2017-12-31T20:17:26.467Z,77.20
2017-12-31T20:19:54.814Z,76.70
2017-12-31T20:22:23.128Z,77.10
2017-12-31T20:24:52.024Z,77.00
2017-12-31T20:27:20.581Z,76.50
2017-12-31T20:29:49.214Z,76.60
2017-12-31T20:32:17.653Z,76.00
2017-12-31T20:34:45.982Z,76.40
2017-12-31T20:37:15.088Z,76.10
2017-12-31T20:39:44.204Z,76.20
2017-12-31T20:42:12.555Z,76.20
2017-12-31T20:44:41.661Z,76.80
2017-12-31T20:47:10.009Z,76.90
2017-12-31T20:49:38.172Z,77.30
2017-12-31T20:52:06.541Z,76.90
2017-12-31T20:54:34.875Z,76.80
2017-12-31T20:57:03.216Z,76.60
2017-12-31T20:59:32.327Z,76.10
2017-12-31T21:02:00.722Z,76.10
2017-12-31T21:04:29.066Z,76.00
2017-12-31T21:06:58.172Z,76.10
2017-12-31T21:09:27.291Z,76.10
2017-12-31T21:11:55.661Z,76.10
2017-12-31T21:14:23.997Z,76.20
2017-12-31T21:16:52.419Z,76.50
2017-12-31T21:19:20.776Z,75.70
2017-12-31T21:21:49.883Z,75.70
2017-12-31T21:24:18.248Z,75.70
2017-12-31T21:26:46.633Z,75.80
2017-12-31T21:29:14.972Z,75.20
2017-12-31T21:31:43.357Z,75.00
2017-12-31T21:34:11.727Z,75.10
2017-12-31T21:36:40.096Z,75.10
2017-12-31T21:39:08.437Z,76.30
2017-12-31T21:41:36.783Z,75.10
2017-12-31T21:44:05.893Z,74.80
2017-12-31T21:46:34.262Z,74.80
2017-12-31T21:49:02.609Z,75.50
2017-12-31T21:51:30.646Z,76.10
2017-12-31T21:53:59.181Z,76.10
2017-12-31T21:56:28.292Z,75.50
2017-12-31T21:58:56.635Z,75.50
2017-12-31T22:01:25.772Z,75.40
2017-12-31T22:03:54.137Z,75.20
2017-12-31T22:06:22.464Z,75.30
2017-12-31T22:08:50.787Z,75.50
2017-12-31T22:11:19.276Z,75.20
2017-12-31T22:13:47.595Z,75.40
2017-12-31T22:16:16.716Z,74.90
2017-12-31T22:18:45.828Z,74.70
2017-12-31T22:21:14.168Z,74.70
2017-12-31T22:23:42.515Z,74.60
2017-12-31T22:26:10.864Z,74.60
2017-12-31T22:28:39.223Z,74.80
2017-12-31T22:31:08.328Z,74.90
2017-12-31T22:33:36.659Z,74.90
2017-12-31T22:36:05.003Z,75.00
2017-12-31T22:38:33.401Z,74.70
2017-12-31T22:41:01.740Z,74.80
2017-12-31T22:43:29.774Z,74.90
2017-12-31T22:45:58.124Z,74.80
2017-12-31T22:48:26.452Z,75.40
2017-12-31T22:50:54.785Z,75.90
2017-12-31T22:53:23.114Z,75.30
2017-12-31T22:55:51.464Z,75.00
2017-12-31T22:58:21.531Z,75.50
2017-12-31T23:00:50.650Z,75.50
2017-12-31T23:03:19.282Z,75.50
2017-12-31T23:05:47.629Z,76.10
2017-12-31T23:08:15.979Z,76.20
2017-12-31T23:10:44.149Z,75.60
2017-12-31T23:13:12.504Z,75.00
2017-12-31T23:15:40.860Z,75.80
2017-12-31T23:18:09.209Z,76.40
2017-12-31T23:20:38.144Z,75.50
2017-12-31T23:23:06.528Z,75.50
2017-12-31T23:25:34.885Z,75.50
2017-12-31T23:28:03.245Z,75.20
2017-12-31T23:30:32.348Z,75.50
2017-12-31T23:33:00.705Z,75.50
2017-12-31T23:35:29.803Z,74.90
2017-12-31T23:37:58.915Z,75.10
2017-12-31T23:40:27.078Z,75.00
2017-12-31T23:42:55.434Z,75.10
2017-12-31T23:45:23.770Z,75.10
2017-12-31T23:47:52.125Z,76.00
2017-12-31T23:50:20.466Z,75.50
2017-12-31T23:52:48.830Z,75.20
2017-12-31T23:55:17.182Z,75.70
2017-12-31T23:57:45.543Z,76.30
